sensor_id;sensor_type;location;lat;lon;timestamp;P1;durP1;ratioP1;P2;durP2;ratioP2
8046;SDS011;74083;42.516;23.358;2023-11-18T00:01:35;1.00;;;1.00;;
8046;SDS011;74083;42.516;23.358;2023-11-18T00:04:22;1.00;;;1.00;;
8046;SDS011;74083;42.516;23.358;2023-11-18T00:07:07;1.00;;;1.00;;
8046;SDS011;74083;42.516;23.358;2023-11-18T00:09:53;1.53;;;1.00;;
8046;SDS011;74083;42.516;23.358;2023-11-18T00:12:39;1.10;;;1.10;;
8046;SDS011;74083;42.516;23.358;2023-11-18T00:15:27;1.00;;;1.00;;
8046;SDS011;74083;42.516;23.358;2023-11-18T00:18:13;1.00;;;1.00;;
8046;SDS011;74083;42.516;23.358;2023-11-18T00:20:59;0.90;;;0.90;;
8046;SDS011;74083;42.516;23.358;2023-11-18T00:23:46;1.00;;;1.00;;
8046;SDS011;74083;42.516;23.358;2023-11-18T00:26:32;1.00;;;1.00;;
8046;SDS011;74083;42.516;23.358;2023-11-18T00:29:17;0.90;;;0.90;;
8046;SDS011;74083;42.516;23.358;2023-11-18T00:32:06;0.90;;;0.90;;
8046;SDS011;74083;42.516;23.358;2023-11-18T00:34:52;0.90;;;0.90;;
8046;SDS011;74083;42.516;23.358;2023-11-18T00:37:38;0.90;;;0.90;;
8046;SDS011;74083;42.516;23.358;2023-11-18T00:40:23;0.90;;;0.90;;
8046;SDS011;74083;42.516;23.358;2023-11-18T00:43:09;0.90;;;0.90;;
8046;SDS011;74083;42.516;23.358;2023-11-18T00:45:54;0.90;;;0.90;;
8046;SDS011;74083;42.516;23.358;2023-11-18T00:48:44;0.80;;;0.80;;
8046;SDS011;74083;42.516;23.358;2023-11-18T00:51:30;0.80;;;0.80;;
8046;SDS011;74083;42.516;23.358;2023-11-18T00:54:15;0.90;;;0.90;;
8046;SDS011;74083;42.516;23.358;2023-11-18T00:57:01;1.30;;;0.90;;
8046;SDS011;74083;42.516;23.358;2023-11-18T00:59:47;0.87;;;0.87;;
8046;SDS011;74083;42.516;23.358;2023-11-18T01:02:33;0.90;;;0.90;;
8046;SDS011;74083;42.516;23.358;2023-11-18T01:05:21;0.83;;;0.83;;
8046;SDS011;74083;42.516;23.358;2023-11-18T01:08:07;0.87;;;0.87;;
8046;SDS011;74083;42.516;23.358;2023-11-18T01:10:53;1.00;;;1.00;;
8046;SDS011;74083;42.516;23.358;2023-11-18T01:13:39;1.60;;;0.90;;
8046;SDS011;74083;42.516;23.358;2023-11-18T01:16:25;1.10;;;1.10;;
8046;SDS011;74083;42.516;23.358;2023-11-18T01:19:12;0.90;;;0.90;;
8046;SDS011;74083;42.516;23.358;2023-11-18T01:21:59;1.03;;;1.00;;
8046;SDS011;74083;42.516;23.358;2023-11-18T01:24:49;0.97;;;0.97;;
8046;SDS011;74083;42.516;23.358;2023-11-18T01:27:36;1.13;;;1.10;;
8046;SDS011;74083;42.516;23.358;2023-11-18T01:30:22;1.00;;;1.00;;
8046;SDS011;74083;42.516;23.358;2023-11-18T01:33:07;1.00;;;1.00;;
8046;SDS011;74083;42.516;23.358;2023-11-18T01:35:53;1.00;;;1.00;;
8046;SDS011;74083;42.516;23.358;2023-11-18T01:38:41;0.97;;;0.97;;
8046;SDS011;74083;42.516;23.358;2023-11-18T01:41:26;1.00;;;1.00;;
8046;SDS011;74083;42.516;23.358;2023-11-18T01:44:13;1.13;;;1.03;;
8046;SDS011;74083;42.516;23.358;2023-11-18T01:46:59;1.00;;;1.00;;
8046;SDS011;74083;42.516;23.358;2023-11-18T01:49:49;1.00;;;1.00;;
8046;SDS011;74083;42.516;23.358;2023-11-18T01:52:34;1.00;;;1.00;;
8046;SDS011;74083;42.516;23.358;2023-11-18T01:55:22;0.90;;;0.90;;
8046;SDS011;74083;42.516;23.358;2023-11-18T01:58:08;1.07;;;1.07;;
8046;SDS011;74083;42.516;23.358;2023-11-18T02:00:54;1.00;;;1.00;;
8046;SDS011;74083;42.516;23.358;2023-11-18T02:03:41;0.90;;;0.90;;
8046;SDS011;74083;42.516;23.358;2023-11-18T02:06:26;0.90;;;0.90;;
8046;SDS011;74083;42.516;23.358;2023-11-18T02:09:12;1.20;;;1.00;;
8046;SDS011;74083;42.516;23.358;2023-11-18T02:12:05;0.90;;;0.90;;
8046;SDS011;74083;42.516;23.358;2023-11-18T02:15:01;0.90;;;0.90;;
8046;SDS011;74083;42.516;23.358;2023-11-18T02:17:53;0.80;;;0.80;;
8046;SDS011;74083;42.516;23.358;2023-11-18T02:20:41;0.80;;;0.80;;
8046;SDS011;74083;42.516;23.358;2023-11-18T02:23:28;0.87;;;0.87;;
8046;SDS011;74083;42.516;23.358;2023-11-18T02:26:21;1.00;;;1.00;;
8046;SDS011;74083;42.516;23.358;2023-11-18T02:29:07;0.90;;;0.90;;
8046;SDS011;74083;42.516;23.358;2023-11-18T02:31:53;0.90;;;0.90;;
8046;SDS011;74083;42.516;23.358;2023-11-18T02:34:48;0.80;;;0.80;;
8046;SDS011;74083;42.516;23.358;2023-11-18T02:37:37;0.90;;;0.90;;
8046;SDS011;74083;42.516;23.358;2023-11-18T02:40:27;1.00;;;1.00;;
8046;SDS011;74083;42.516;23.358;2023-11-18T02:43:16;0.90;;;0.90;;
8046;SDS011;74083;42.516;23.358;2023-11-18T02:46:04;0.80;;;0.80;;
8046;SDS011;74083;42.516;23.358;2023-11-18T02:48:50;0.90;;;0.90;;
8046;SDS011;74083;42.516;23.358;2023-11-18T02:51:37;1.10;;;1.10;;
8046;SDS011;74083;42.516;23.358;2023-11-18T02:54:24;0.90;;;0.90;;
8046;SDS011;74083;42.516;23.358;2023-11-18T02:57:10;1.10;;;1.10;;
8046;SDS011;74083;42.516;23.358;2023-11-18T02:59:58;1.00;;;1.00;;
8046;SDS011;74083;42.516;23.358;2023-11-18T03:02:45;0.97;;;0.97;;
8046;SDS011;74083;42.516;23.358;2023-11-18T03:05:32;1.00;;;1.00;;
8046;SDS011;74083;42.516;23.358;2023-11-18T03:08:17;1.33;;;1.07;;
8046;SDS011;74083;42.516;23.358;2023-11-18T03:11:03;1.00;;;1.00;;
8046;SDS011;74083;42.516;23.358;2023-11-18T03:13:53;0.90;;;0.90;;
8046;SDS011;74083;42.516;23.358;2023-11-18T03:16:39;1.10;;;1.10;;
8046;SDS011;74083;42.516;23.358;2023-11-18T03:19:25;1.00;;;1.00;;
8046;SDS011;74083;42.516;23.358;2023-11-18T03:22:11;1.00;;;1.00;;
8046;SDS011;74083;42.516;23.358;2023-11-18T03:24:57;1.00;;;1.00;;
8046;SDS011;74083;42.516;23.358;2023-11-18T03:27:43;1.17;;;1.17;;
8046;SDS011;74083;42.516;23.358;2023-11-18T03:30:29;1.10;;;1.10;;
8046;SDS011;74083;42.516;23.358;2023-11-18T03:33:17;1.00;;;1.00;;
8046;SDS011;74083;42.516;23.358;2023-11-18T03:36:03;1.13;;;1.10;;
8046;SDS011;74083;42.516;23.358;2023-11-18T03:38:49;1.10;;;1.10;;
8046;SDS011;74083;42.516;23.358;2023-11-18T03:41:35;1.10;;;1.10;;
8046;SDS011;74083;42.516;23.358;2023-11-18T03:44:21;1.10;;;1.10;;
8046;SDS011;74083;42.516;23.358;2023-11-18T03:47:07;1.10;;;1.10;;
8046;SDS011;74083;42.516;23.358;2023-11-18T03:49:55;1.07;;;1.07;;
8046;SDS011;74083;42.516;23.358;2023-11-18T03:52:41;1.07;;;1.07;;
8046;SDS011;74083;42.516;23.358;2023-11-18T03:55:26;1.17;;;1.17;;
8046;SDS011;74083;42.516;23.358;2023-11-18T03:58:11;1.20;;;1.20;;
8046;SDS011;74083;42.516;23.358;2023-11-18T04:00:57;1.17;;;1.17;;
8046;SDS011;74083;42.516;23.358;2023-11-18T04:03:43;1.20;;;1.20;;
8046;SDS011;74083;42.516;23.358;2023-11-18T04:06:30;1.10;;;1.10;;
8046;SDS011;74083;42.516;23.358;2023-11-18T04:09:16;1.20;;;1.20;;
8046;SDS011;74083;42.516;23.358;2023-11-18T04:12:02;1.20;;;1.20;;
8046;SDS011;74083;42.516;23.358;2023-11-18T04:14:49;1.20;;;1.20;;
8046;SDS011;74083;42.516;23.358;2023-11-18T04:17:35;1.10;;;1.10;;
8046;SDS011;74083;42.516;23.358;2023-11-18T04:20:22;1.30;;;1.30;;
8046;SDS011;74083;42.516;23.358;2023-11-18T04:23:09;1.13;;;1.13;;
8046;SDS011;74083;42.516;23.358;2023-11-18T04:25:55;1.10;;;1.10;;
8046;SDS011;74083;42.516;23.358;2023-11-18T04:28:41;1.70;;;1.60;;
8046;SDS011;74083;42.516;23.358;2023-11-18T04:31:27;2.07;;;1.97;;
8046;SDS011;74083;42.516;23.358;2023-11-18T04:34:13;2.00;;;1.90;;
8046;SDS011;74083;42.516;23.358;2023-11-18T04:37:00;1.90;;;1.80;;
8046;SDS011;74083;42.516;23.358;2023-11-18T04:39:47;1.70;;;1.60;;
8046;SDS011;74083;42.516;23.358;2023-11-18T04:42:33;1.30;;;1.30;;
8046;SDS011;74083;42.516;23.358;2023-11-18T04:45:18;1.30;;;1.30;;
8046;SDS011;74083;42.516;23.358;2023-11-18T04:48:04;1.33;;;1.33;;
8046;SDS011;74083;42.516;23.358;2023-11-18T04:50:50;1.30;;;1.30;;
8046;SDS011;74083;42.516;23.358;2023-11-18T04:53:36;1.40;;;1.40;;
8046;SDS011;74083;42.516;23.358;2023-11-18T04:56:24;1.50;;;1.40;;
8046;SDS011;74083;42.516;23.358;2023-11-18T04:59:10;1.30;;;1.30;;
8046;SDS011;74083;42.516;23.358;2023-11-18T05:01:55;1.40;;;1.40;;
8046;SDS011;74083;42.516;23.358;2023-11-18T05:04:41;1.33;;;1.33;;
8046;SDS011;74083;42.516;23.358;2023-11-18T05:07:27;1.40;;;1.40;;
8046;SDS011;74083;42.516;23.358;2023-11-18T05:10:13;1.80;;;1.70;;
8046;SDS011;74083;42.516;23.358;2023-11-18T05:13:00;1.53;;;1.43;;
8046;SDS011;74083;42.516;23.358;2023-11-18T05:15:46;1.70;;;1.60;;
8046;SDS011;74083;42.516;23.358;2023-11-18T05:18:33;1.50;;;1.40;;
8046;SDS011;74083;42.516;23.358;2023-11-18T05:21:20;1.80;;;1.70;;
8046;SDS011;74083;42.516;23.358;2023-11-18T05:24:06;1.57;;;1.47;;
8046;SDS011;74083;42.516;23.358;2023-11-18T05:26:53;1.67;;;1.57;;
8046;SDS011;74083;42.516;23.358;2023-11-18T05:29:40;1.33;;;1.30;;
8046;SDS011;74083;42.516;23.358;2023-11-18T05:32:26;1.40;;;1.40;;
8046;SDS011;74083;42.516;23.358;2023-11-18T05:35:12;1.60;;;1.50;;
8046;SDS011;74083;42.516;23.358;2023-11-18T05:37:58;1.57;;;1.50;;
8046;SDS011;74083;42.516;23.358;2023-11-18T05:40:47;1.60;;;1.50;;
8046;SDS011;74083;42.516;23.358;2023-11-18T05:43:40;1.50;;;1.40;;
8046;SDS011;74083;42.516;23.358;2023-11-18T05:46:27;1.50;;;1.50;;
8046;SDS011;74083;42.516;23.358;2023-11-18T05:49:13;1.53;;;1.43;;
8046;SDS011;74083;42.516;23.358;2023-11-18T05:51:58;1.40;;;1.40;;
8046;SDS011;74083;42.516;23.358;2023-11-18T05:54:44;1.50;;;1.40;;
8046;SDS011;74083;42.516;23.358;2023-11-18T05:57:31;1.60;;;1.50;;
8046;SDS011;74083;42.516;23.358;2023-11-18T06:00:17;1.43;;;1.43;;
8046;SDS011;74083;42.516;23.358;2023-11-18T06:03:04;1.30;;;1.30;;
8046;SDS011;74083;42.516;23.358;2023-11-18T06:05:51;1.40;;;1.40;;
8046;SDS011;74083;42.516;23.358;2023-11-18T06:08:37;1.40;;;1.40;;
8046;SDS011;74083;42.516;23.358;2023-11-18T06:11:25;1.10;;;1.10;;
8046;SDS011;74083;42.516;23.358;2023-11-18T06:14:10;1.20;;;1.20;;
8046;SDS011;74083;42.516;23.358;2023-11-18T06:16:57;1.37;;;1.37;;
8046;SDS011;74083;42.516;23.358;2023-11-18T06:19:45;1.30;;;1.30;;
8046;SDS011;74083;42.516;23.358;2023-11-18T06:22:31;1.20;;;1.20;;
8046;SDS011;74083;42.516;23.358;2023-11-18T06:25:17;1.40;;;1.40;;
8046;SDS011;74083;42.516;23.358;2023-11-18T06:28:03;1.20;;;1.20;;
8046;SDS011;74083;42.516;23.358;2023-11-18T06:30:51;1.30;;;1.30;;
8046;SDS011;74083;42.516;23.358;2023-11-18T06:33:37;1.30;;;1.30;;
8046;SDS011;74083;42.516;23.358;2023-11-18T06:36:28;1.13;;;1.13;;
8046;SDS011;74083;42.516;23.358;2023-11-18T06:39:14;1.20;;;1.20;;
8046;SDS011;74083;42.516;23.358;2023-11-18T06:42:00;1.10;;;1.10;;
8046;SDS011;74083;42.516;23.358;2023-11-18T06:44:48;1.20;;;1.20;;
8046;SDS011;74083;42.516;23.358;2023-11-18T06:47:34;1.07;;;1.07;;
8046;SDS011;74083;42.516;23.358;2023-11-18T06:50:20;1.10;;;1.10;;
8046;SDS011;74083;42.516;23.358;2023-11-18T06:53:09;1.10;;;1.10;;
8046;SDS011;74083;42.516;23.358;2023-11-18T06:55:55;1.10;;;1.10;;
8046;SDS011;74083;42.516;23.358;2023-11-18T06:58:41;1.47;;;1.13;;
8046;SDS011;74083;42.516;23.358;2023-11-18T07:01:27;1.10;;;1.10;;
8046;SDS011;74083;42.516;23.358;2023-11-18T07:04:15;1.10;;;1.10;;
8046;SDS011;74083;42.516;23.358;2023-11-18T07:07:00;1.10;;;1.10;;
8046;SDS011;74083;42.516;23.358;2023-11-18T07:09:47;1.30;;;1.20;;
8046;SDS011;74083;42.516;23.358;2023-11-18T07:12:33;1.00;;;1.00;;
8046;SDS011;74083;42.516;23.358;2023-11-18T07:15:21;1.03;;;1.03;;
8046;SDS011;74083;42.516;23.358;2023-11-18T07:18:07;1.00;;;1.00;;
8046;SDS011;74083;42.516;23.358;2023-11-18T07:20:53;1.00;;;1.00;;
8046;SDS011;74083;42.516;23.358;2023-11-18T07:23:38;1.00;;;1.00;;
8046;SDS011;74083;42.516;23.358;2023-11-18T07:26:25;1.10;;;1.10;;
8046;SDS011;74083;42.516;23.358;2023-11-18T07:29:11;1.00;;;1.00;;
8046;SDS011;74083;42.516;23.358;2023-11-18T07:31:57;1.00;;;1.00;;
8046;SDS011;74083;42.516;23.358;2023-11-18T07:34:45;1.07;;;1.07;;
8046;SDS011;74083;42.516;23.358;2023-11-18T07:37:30;1.10;;;1.10;;
8046;SDS011;74083;42.516;23.358;2023-11-18T07:40:17;1.20;;;1.20;;
8046;SDS011;74083;42.516;23.358;2023-11-18T07:43:13;1.10;;;1.10;;
8046;SDS011;74083;42.516;23.358;2023-11-18T07:45:59;1.10;;;1.10;;
8046;SDS011;74083;42.516;23.358;2023-11-18T07:48:46;1.00;;;1.00;;
8046;SDS011;74083;42.516;23.358;2023-11-18T07:51:32;1.00;;;1.00;;
8046;SDS011;74083;42.516;23.358;2023-11-18T07:54:17;0.90;;;0.90;;
8046;SDS011;74083;42.516;23.358;2023-11-18T07:57:03;1.03;;;1.03;;
8046;SDS011;74083;42.516;23.358;2023-11-18T07:59:56;0.93;;;0.93;;
8046;SDS011;74083;42.516;23.358;2023-11-18T08:02:49;1.00;;;1.00;;
8046;SDS011;74083;42.516;23.358;2023-11-18T08:05:38;0.93;;;0.93;;
8046;SDS011;74083;42.516;23.358;2023-11-18T08:08:24;0.80;;;0.80;;
8046;SDS011;74083;42.516;23.358;2023-11-18T08:11:11;1.03;;;1.03;;
8046;SDS011;74083;42.516;23.358;2023-11-18T08:13:56;0.90;;;0.90;;
8046;SDS011;74083;42.516;23.358;2023-11-18T08:16:45;1.00;;;1.00;;
8046;SDS011;74083;42.516;23.358;2023-11-18T08:19:31;1.00;;;1.00;;
8046;SDS011;74083;42.516;23.358;2023-11-18T08:22:18;1.07;;;1.07;;
8046;SDS011;74083;42.516;23.358;2023-11-18T08:25:06;0.90;;;0.90;;
8046;SDS011;74083;42.516;23.358;2023-11-18T08:27:52;1.00;;;1.00;;
8046;SDS011;74083;42.516;23.358;2023-11-18T08:30:38;1.00;;;1.00;;
8046;SDS011;74083;42.516;23.358;2023-11-18T08:33:25;0.90;;;0.90;;
8046;SDS011;74083;42.516;23.358;2023-11-18T08:36:12;1.00;;;1.00;;
8046;SDS011;74083;42.516;23.358;2023-11-18T08:38:57;0.93;;;0.93;;
8046;SDS011;74083;42.516;23.358;2023-11-18T08:41:43;0.90;;;0.90;;
8046;SDS011;74083;42.516;23.358;2023-11-18T08:44:29;1.00;;;1.00;;
8046;SDS011;74083;42.516;23.358;2023-11-18T08:47:16;0.90;;;0.90;;
8046;SDS011;74083;42.516;23.358;2023-11-18T08:50:04;0.80;;;0.80;;
8046;SDS011;74083;42.516;23.358;2023-11-18T08:52:56;0.90;;;0.90;;
8046;SDS011;74083;42.516;23.358;2023-11-18T08:55:43;1.10;;;1.00;;
8046;SDS011;74083;42.516;23.358;2023-11-18T08:58:34;0.80;;;0.80;;
8046;SDS011;74083;42.516;23.358;2023-11-18T09:01:22;1.00;;;1.00;;
8046;SDS011;74083;42.516;23.358;2023-11-18T09:04:12;1.00;;;0.90;;
8046;SDS011;74083;42.516;23.358;2023-11-18T09:07:00;1.00;;;1.00;;
8046;SDS011;74083;42.516;23.358;2023-11-18T09:09:46;0.90;;;0.90;;
8046;SDS011;74083;42.516;23.358;2023-11-18T09:12:33;0.90;;;0.90;;
8046;SDS011;74083;42.516;23.358;2023-11-18T09:15:19;0.97;;;0.97;;
8046;SDS011;74083;42.516;23.358;2023-11-18T09:18:06;1.00;;;1.00;;
8046;SDS011;74083;42.516;23.358;2023-11-18T09:20:54;1.20;;;1.10;;
8046;SDS011;74083;42.516;23.358;2023-11-18T09:23:42;1.00;;;1.00;;
8046;SDS011;74083;42.516;23.358;2023-11-18T09:26:28;3.60;;;1.10;;
8046;SDS011;74083;42.516;23.358;2023-11-18T09:29:14;0.90;;;0.90;;
8046;SDS011;74083;42.516;23.358;2023-11-18T09:32:01;0.97;;;0.97;;
8046;SDS011;74083;42.516;23.358;2023-11-18T09:34:49;2.60;;;1.47;;
8046;SDS011;74083;42.516;23.358;2023-11-18T09:37:36;1.20;;;1.10;;
8046;SDS011;74083;42.516;23.358;2023-11-18T09:40:23;1.00;;;1.00;;
8046;SDS011;74083;42.516;23.358;2023-11-18T09:43:16;1.00;;;1.00;;
8046;SDS011;74083;42.516;23.358;2023-11-18T09:46:03;1.00;;;1.00;;
8046;SDS011;74083;42.516;23.358;2023-11-18T09:48:59;1.47;;;1.00;;
8046;SDS011;74083;42.516;23.358;2023-11-18T09:51:59;1.10;;;1.10;;
8046;SDS011;74083;42.516;23.358;2023-11-18T09:54:51;0.90;;;0.90;;
8046;SDS011;74083;42.516;23.358;2023-11-18T09:57:48;1.10;;;1.10;;
8046;SDS011;74083;42.516;23.358;2023-11-18T10:00:41;1.00;;;1.00;;
